createdAt,value
2023-03-28T00:01:34.856Z,24.42
2023-03-28T00:04:05.777Z,24.38
2023-03-28T00:06:36.242Z,24.33
2023-03-28T00:09:06.575Z,24.31
2023-03-28T00:11:37.521Z,24.30
2023-03-28T00:14:09.708Z,24.30
2023-03-28T00:16:42.011Z,24.30
2023-03-28T00:19:16.144Z,24.29
2023-03-28T00:21:49.970Z,24.30
2023-03-28T00:24:23.340Z,24.29
2023-03-28T00:26:55.188Z,24.27
2023-03-28T00:29:34.250Z,24.25
2023-03-28T00:32:04.914Z,24.18
2023-03-28T00:34:35.570Z,24.10
2023-03-28T00:37:05.931Z,24.01
2023-03-28T00:39:35.962Z,23.96
2023-03-28T00:42:06.525Z,23.95
2023-03-28T00:44:54.501Z,23.91
2023-03-28T00:47:44.308Z,23.89
2023-03-28T00:50:22.210Z,23.86
2023-03-28T00:52:59.591Z,23.84
2023-03-28T00:55:36.055Z,23.80
2023-03-28T00:58:12.209Z,23.77
2023-03-28T01:00:47.400Z,23.75
2023-03-28T01:03:20.757Z,23.73
2023-03-28T01:05:51.484Z,23.72
2023-03-28T01:08:26.898Z,23.73
2023-03-28T01:10:57.981Z,23.73
2023-03-28T01:13:33.078Z,23.74
2023-03-28T01:16:07.839Z,23.74
2023-03-28T01:18:41.921Z,23.73
2023-03-28T01:21:55.467Z,23.71
2023-03-28T01:25:24.573Z,23.68
2023-03-28T01:28:02.688Z,23.66
2023-03-28T01:31:19.950Z,23.68
2023-03-28T01:34:32.778Z,23.67
2023-03-28T01:37:33.966Z,23.68
2023-03-28T01:40:28.018Z,23.68
2023-03-28T01:43:15.577Z,23.68
2023-03-28T01:45:59.005Z,23.68
2023-03-28T01:48:44.617Z,23.69
2023-03-28T01:51:26.834Z,23.70
2023-03-28T01:54:07.963Z,23.70
2023-03-28T01:56:44.662Z,23.72
2023-03-28T01:59:22.145Z,23.73
2023-03-28T02:02:03.068Z,23.73
2023-03-28T02:04:36.623Z,23.71
2023-03-28T02:07:09.222Z,23.71
2023-03-28T02:09:45.678Z,23.70
2023-03-28T02:12:22.608Z,23.70
2023-03-28T02:14:56.394Z,23.71
2023-03-28T02:17:30.617Z,23.71
2023-03-28T02:20:09.263Z,23.71
2023-03-28T02:22:49.603Z,23.69
2023-03-28T02:25:22.723Z,23.69
2023-03-28T02:27:57.970Z,23.69
2023-03-28T02:30:29.061Z,23.68
2023-03-28T02:33:03.097Z,23.69
2023-03-28T02:35:59.136Z,23.69
2023-03-28T02:38:42.813Z,23.67
2023-03-28T02:41:29.465Z,23.66
2023-03-28T02:44:23.019Z,23.65
2023-03-28T02:47:11.832Z,23.62
2023-03-28T02:50:05.062Z,23.60
2023-03-28T02:52:52.475Z,23.59
2023-03-28T02:55:33.674Z,23.59
2023-03-28T02:58:12.618Z,23.60
2023-03-28T03:00:43.270Z,23.58
2023-03-28T03:03:14.355Z,23.58
2023-03-28T03:05:44.379Z,23.58
2023-03-28T03:08:14.909Z,23.59
2023-03-28T03:10:45.103Z,23.59
2023-03-28T03:13:18.727Z,23.59
2023-03-28T03:15:49.911Z,23.61
2023-03-28T03:18:20.428Z,23.58
2023-03-28T03:20:50.635Z,23.59
2023-03-28T03:23:21.432Z,23.59
2023-03-28T03:25:52.216Z,23.59
2023-03-28T03:28:24.600Z,23.59
2023-03-28T03:30:55.623Z,23.58
2023-03-28T03:33:25.436Z,23.55
2023-03-28T03:35:55.926Z,23.54
2023-03-28T03:38:26.381Z,23.53
2023-03-28T03:40:56.979Z,23.53
2023-03-28T03:43:30.015Z,23.52
2023-03-28T03:46:01.396Z,23.51
2023-03-28T03:48:31.840Z,23.51
2023-03-28T03:51:02.260Z,23.50
2023-03-28T03:53:32.857Z,23.51
2023-03-28T03:56:04.343Z,23.51
2023-03-28T03:58:36.140Z,23.51
2023-03-28T04:01:06.535Z,23.51
2023-03-28T04:03:37.079Z,23.53
2023-03-28T04:06:08.684Z,23.54
2023-03-28T04:08:39.460Z,23.56
2023-03-28T04:11:11.104Z,23.59
2023-03-28T04:13:43.581Z,23.62
2023-03-28T04:16:15.901Z,23.63
2023-03-28T04:18:51.200Z,23.65
2023-03-28T04:21:27.918Z,23.66
2023-03-28T04:24:02.176Z,23.68
2023-03-28T04:26:35.996Z,23.71
2023-03-28T04:29:09.774Z,23.73
2023-03-28T04:31:40.908Z,23.74
2023-03-28T04:34:14.081Z,23.76
2023-03-28T04:36:45.426Z,23.78
2023-03-28T04:39:16.050Z,23.79
2023-03-28T04:41:47.763Z,23.81
2023-03-28T04:44:20.157Z,23.84
2023-03-28T04:46:51.309Z,23.85
2023-03-28T04:49:22.202Z,23.85
2023-03-28T04:51:52.374Z,23.87
2023-03-28T04:54:22.547Z,23.89
2023-03-28T04:56:53.180Z,23.91
2023-03-28T04:59:25.186Z,23.93
2023-03-28T05:01:55.536Z,23.93
2023-03-28T05:04:27.001Z,23.96
2023-03-28T05:06:58.151Z,23.98
2023-03-28T05:09:29.205Z,24.00
2023-03-28T05:11:59.934Z,24.04
2023-03-28T05:14:32.253Z,24.06
2023-03-28T05:17:02.406Z,24.07
2023-03-28T05:19:32.080Z,24.10
2023-03-28T05:22:02.172Z,24.10
2023-03-28T05:24:33.322Z,24.11
2023-03-28T05:27:04.055Z,24.14
2023-03-28T05:29:36.730Z,24.17
2023-03-28T05:32:07.248Z,24.17
2023-03-28T05:34:37.678Z,24.17
2023-03-28T05:37:08.154Z,24.17
2023-03-28T05:39:38.706Z,24.17
2023-03-28T05:42:09.395Z,24.15
2023-03-28T05:44:41.818Z,24.17
2023-03-28T05:47:12.149Z,24.20
2023-03-28T05:49:42.171Z,24.24
2023-03-28T05:52:12.319Z,24.28
2023-03-28T05:54:50.573Z,24.34
2023-03-28T05:57:22.567Z,24.38
2023-03-28T05:59:54.839Z,24.43
2023-03-28T06:02:26.165Z,24.47
2023-03-28T06:04:56.767Z,24.52
2023-03-28T06:07:39.269Z,24.58
2023-03-28T06:10:15.160Z,24.64
2023-03-28T06:12:45.737Z,24.70
2023-03-28T06:15:18.014Z,24.77
2023-03-28T06:17:48.409Z,24.86
2023-03-28T06:20:19.117Z,24.96
2023-03-28T06:22:49.293Z,25.03
2023-03-28T06:25:19.433Z,25.11
2023-03-28T06:27:49.869Z,25.18
2023-03-28T06:30:22.669Z,25.28
2023-03-28T06:32:53.381Z,25.37
2023-03-28T06:35:23.770Z,25.44
2023-03-28T06:37:53.656Z,25.53
2023-03-28T06:40:24.158Z,25.61
2023-03-28T06:42:55.088Z,25.70
2023-03-28T06:45:27.287Z,25.79
2023-03-28T06:47:57.456Z,25.88
2023-03-28T06:50:27.768Z,25.98
2023-03-28T06:52:58.187Z,26.07
2023-03-28T06:55:28.354Z,26.18
2023-03-28T06:57:58.845Z,26.28
2023-03-28T07:00:31.192Z,26.38
2023-03-28T07:03:01.587Z,26.48
2023-03-28T07:05:32.551Z,26.56
2023-03-28T07:08:02.264Z,26.63
2023-03-28T07:10:32.805Z,26.71
2023-03-28T07:13:03.777Z,26.77
2023-03-28T07:15:36.698Z,26.85
2023-03-28T07:18:11.809Z,26.93
2023-03-28T07:20:44.185Z,27.01
2023-03-28T07:23:15.758Z,27.07
2023-03-28T07:25:46.412Z,27.13
2023-03-28T07:28:16.920Z,27.20
2023-03-28T07:30:49.186Z,27.28
2023-03-28T07:33:25.891Z,27.36
2023-03-28T07:36:00.993Z,27.43
2023-03-28T07:38:31.652Z,27.49
2023-03-28T07:41:04.207Z,27.57
2023-03-28T07:43:34.856Z,27.65
2023-03-28T07:46:09.762Z,27.74
2023-03-28T07:48:41.448Z,27.81
2023-03-28T07:51:14.279Z,27.86
2023-03-28T07:53:44.780Z,27.93
2023-03-28T07:56:15.182Z,28.00
2023-03-28T07:58:45.378Z,28.09
2023-03-28T08:01:19.111Z,28.16
2023-03-28T08:03:49.120Z,28.23
2023-03-28T08:06:31.713Z,28.31
2023-03-28T08:09:03.240Z,28.37
2023-03-28T08:11:33.481Z,28.43
2023-03-28T08:14:04.067Z,28.43
2023-03-28T08:16:41.287Z,28.45
2023-03-28T08:19:12.895Z,28.47
2023-03-28T08:21:42.670Z,28.50
2023-03-28T08:24:17.506Z,28.55
2023-03-28T08:26:52.701Z,28.62
2023-03-28T08:29:23.608Z,28.69
2023-03-28T08:31:56.585Z,28.78
2023-03-28T08:34:26.685Z,28.83
2023-03-28T08:36:58.031Z,28.88
2023-03-28T08:39:28.423Z,28.92
2023-03-28T08:42:31.516Z,28.97
2023-03-28T08:45:40.994Z,29.01
2023-03-28T08:48:23.118Z,29.06
2023-03-28T08:51:01.801Z,29.09
2023-03-28T08:53:39.298Z,29.12
2023-03-28T08:56:11.739Z,29.16
2023-03-28T08:58:52.297Z,29.23
2023-03-28T09:01:23.896Z,29.27
2023-03-28T09:03:58.651Z,29.32
2023-03-28T09:06:38.477Z,29.37
2023-03-28T09:09:38.673Z,29.40
2023-03-28T09:12:31.270Z,29.41
2023-03-28T09:15:32.830Z,29.44
2023-03-28T09:18:34.314Z,29.49
2023-03-28T09:21:20.240Z,29.55
2023-03-28T09:24:16.813Z,29.59
2023-03-28T09:26:56.761Z,29.65
2023-03-28T09:29:29.173Z,29.71
2023-03-28T09:32:05.343Z,29.76
2023-03-28T09:34:43.072Z,29.80
2023-03-28T09:37:31.241Z,29.84
2023-03-28T09:40:14.761Z,29.88
2023-03-28T09:42:58.293Z,29.92
2023-03-28T09:45:46.082Z,29.95
2023-03-28T09:48:24.853Z,29.98
2023-03-28T09:50:56.333Z,29.98
2023-03-28T09:53:33.144Z,30.00
2023-03-28T09:56:08.570Z,29.99
2023-03-28T09:58:53.526Z,30.00
2023-03-28T10:01:42.589Z,30.01
2023-03-28T10:04:18.185Z,30.00
2023-03-28T10:06:50.668Z,30.02
2023-03-28T10:09:27.388Z,30.04
2023-03-28T10:12:00.124Z,30.08
2023-03-28T10:14:37.067Z,30.11
2023-03-28T10:17:14.674Z,30.13
2023-03-28T10:19:48.293Z,30.15
2023-03-28T10:22:26.037Z,30.16
2023-03-28T10:24:59.206Z,30.16
2023-03-28T10:27:33.248Z,30.18
2023-03-28T10:30:19.804Z,30.21
2023-03-28T10:33:22.797Z,30.21
2023-03-28T10:36:01.138Z,30.21
2023-03-28T10:38:38.520Z,30.22
2023-03-28T10:41:22.293Z,30.23
2023-03-28T10:43:55.080Z,30.22
2023-03-28T10:46:31.134Z,30.24
2023-03-28T10:49:08.001Z,30.23
2023-03-28T10:51:42.481Z,30.23
2023-03-28T10:54:48.704Z,30.22
2023-03-28T10:57:34.621Z,30.21
2023-03-28T11:00:13.656Z,30.20
2023-03-28T11:03:17.428Z,30.19
2023-03-28T11:06:05.772Z,30.17
2023-03-28T11:08:56.566Z,30.15
2023-03-28T11:12:08.377Z,30.12
2023-03-28T11:14:59.506Z,30.11
2023-03-28T11:17:46.099Z,30.10
2023-03-28T11:20:41.128Z,30.11
2023-03-28T11:23:44.925Z,30.09
2023-03-28T11:26:19.572Z,30.05
2023-03-28T11:29:11.320Z,30.04
2023-03-28T11:31:50.425Z,30.03
2023-03-28T11:34:29.128Z,30.01
2023-03-28T11:37:07.803Z,29.99
2023-03-28T11:39:45.168Z,29.99
2023-03-28T11:42:25.243Z,29.98
2023-03-28T11:45:08.136Z,29.94
2023-03-28T11:47:47.650Z,29.94
2023-03-28T11:50:25.156Z,29.92
2023-03-28T11:53:03.832Z,29.92
2023-03-28T11:55:41.976Z,29.92
2023-03-28T11:58:23.734Z,29.90
2023-03-28T12:01:05.842Z,29.88
2023-03-28T12:03:59.441Z,29.86
2023-03-28T12:06:44.025Z,29.85
2023-03-28T12:09:34.072Z,29.85
2023-03-28T12:12:12.620Z,29.84
2023-03-28T12:14:55.017Z,29.82
2023-03-28T12:17:31.196Z,29.78
2023-03-28T12:20:07.350Z,29.76
2023-03-28T12:22:45.367Z,29.76
2023-03-28T12:25:29.065Z,29.74
2023-03-28T12:28:12.084Z,29.70
2023-03-28T12:30:50.456Z,29.68
2023-03-28T12:33:38.328Z,29.66
2023-03-28T12:36:24.611Z,29.62
2023-03-28T12:39:02.365Z,29.61
2023-03-28T12:41:38.350Z,29.59
2023-03-28T12:44:15.290Z,29.59
2023-03-28T12:46:53.161Z,29.55
2023-03-28T12:49:35.180Z,29.54
2023-03-28T12:52:15.755Z,29.49
2023-03-28T12:55:02.182Z,29.44
2023-03-28T12:57:49.026Z,29.38
2023-03-28T13:00:29.307Z,29.37
2023-03-28T13:03:24.807Z,29.34
2023-03-28T13:06:09.414Z,29.30
2023-03-28T13:09:11.941Z,29.29
2023-03-28T13:11:56.457Z,29.26
2023-03-28T13:14:41.388Z,29.21
2023-03-28T13:17:25.160Z,29.15
2023-03-28T13:19:57.767Z,29.12
2023-03-28T13:22:36.427Z,29.10
2023-03-28T13:25:32.793Z,29.06
2023-03-28T13:28:24.929Z,28.99
2023-03-28T13:31:15.089Z,28.95
2023-03-28T13:33:51.820Z,28.93
2023-03-28T13:36:27.657Z,28.90
2023-03-28T13:39:23.822Z,28.88
2023-03-28T13:42:05.368Z,28.85
2023-03-28T13:44:50.071Z,28.82
2023-03-28T13:47:33.411Z,28.79
2023-03-28T13:50:16.877Z,28.78
2023-03-28T13:52:47.758Z,28.74
2023-03-28T13:55:25.981Z,28.70
2023-03-28T13:58:02.900Z,28.69
2023-03-28T14:00:33.237Z,28.67
2023-03-28T14:03:08.477Z,28.66
2023-03-28T14:05:48.998Z,28.62
2023-03-28T14:08:27.839Z,28.60
2023-03-28T14:10:59.591Z,28.56
2023-03-28T14:13:32.481Z,28.54
2023-03-28T14:16:03.231Z,28.51
2023-03-28T14:18:40.059Z,28.49
2023-03-28T14:21:11.554Z,28.47
2023-03-28T14:23:50.713Z,28.47
2023-03-28T14:26:24.348Z,28.46
2023-03-28T14:29:04.948Z,28.43
2023-03-28T14:31:37.910Z,28.39
2023-03-28T14:34:21.626Z,28.35
2023-03-28T14:37:04.129Z,28.32
2023-03-28T14:39:37.611Z,28.31
2023-03-28T14:42:12.974Z,28.30
2023-03-28T14:44:47.137Z,28.27
2023-03-28T14:47:22.846Z,28.26
2023-03-28T14:49:54.182Z,28.25
2023-03-28T14:52:32.020Z,28.25
2023-03-28T14:55:04.731Z,28.25
2023-03-28T14:57:38.377Z,28.24
2023-03-28T15:00:25.414Z,28.21
2023-03-28T15:02:57.389Z,28.18
2023-03-28T15:05:27.519Z,28.18
2023-03-28T15:08:04.172Z,28.16
2023-03-28T15:10:35.844Z,28.14
2023-03-28T15:13:17.378Z,28.13
2023-03-28T15:15:51.523Z,28.11
2023-03-28T15:18:28.964Z,28.11
2023-03-28T15:21:04.771Z,28.11
2023-03-28T15:23:40.230Z,28.09
2023-03-28T15:26:26.049Z,28.07
2023-03-28T15:28:58.955Z,28.07
2023-03-28T15:31:32.011Z,28.06
2023-03-28T15:34:02.814Z,28.05
2023-03-28T15:36:35.243Z,28.04
2023-03-28T15:39:21.123Z,28.03
2023-03-28T15:41:56.578Z,28.02
2023-03-28T15:44:33.494Z,28.02
2023-03-28T15:47:12.631Z,27.99
2023-03-28T15:49:42.945Z,27.98
2023-03-28T15:52:22.886Z,27.96
2023-03-28T15:54:56.823Z,27.95
2023-03-28T15:57:32.858Z,27.94
2023-03-28T16:00:04.725Z,27.93
2023-03-28T16:02:37.844Z,27.93
2023-03-28T16:05:28.055Z,27.93
2023-03-28T16:07:58.641Z,27.91
2023-03-28T16:10:30.488Z,27.90
2023-03-28T16:13:01.635Z,27.89
2023-03-28T16:15:33.208Z,27.89
2023-03-28T16:18:05.034Z,27.87
2023-03-28T16:20:40.486Z,27.86
2023-03-28T16:23:11.654Z,27.85
2023-03-28T16:25:42.557Z,27.83
2023-03-28T16:28:20.635Z,27.82
2023-03-28T16:30:50.991Z,27.80
2023-03-28T16:33:24.946Z,27.79
2023-03-28T16:35:55.747Z,27.78
2023-03-28T16:38:27.247Z,27.76
2023-03-28T16:40:57.721Z,27.74
2023-03-28T16:43:28.340Z,27.72
2023-03-28T16:45:58.942Z,27.71
2023-03-28T16:48:34.761Z,27.70
2023-03-28T16:51:05.517Z,27.68
2023-03-28T16:53:35.993Z,27.67
2023-03-28T16:56:09.352Z,27.65
2023-03-28T16:58:40.061Z,27.64
2023-03-28T17:01:12.574Z,27.63
2023-03-28T17:03:45.568Z,27.61
2023-03-28T17:06:17.425Z,27.59
2023-03-28T17:08:48.495Z,27.58
2023-03-28T17:11:20.985Z,27.57
2023-03-28T17:13:54.879Z,27.55
2023-03-28T17:16:26.299Z,27.53
2023-03-28T17:18:58.266Z,27.51
2023-03-28T17:21:28.141Z,27.50
2023-03-28T17:23:58.517Z,27.49
2023-03-28T17:26:29.111Z,27.47
2023-03-28T17:28:59.354Z,27.46
2023-03-28T17:31:29.884Z,27.43
2023-03-28T17:34:02.615Z,27.42
2023-03-28T17:36:33.536Z,27.39
2023-03-28T17:39:05.022Z,27.38
2023-03-28T17:41:34.784Z,27.36
2023-03-28T17:44:07.204Z,27.35
2023-03-28T17:46:52.591Z,27.32
2023-03-28T17:49:25.384Z,27.30
2023-03-28T17:51:57.581Z,27.30
2023-03-28T17:54:28.339Z,27.27
2023-03-28T17:56:59.630Z,27.25
2023-03-28T17:59:30.241Z,27.24
2023-03-28T18:02:00.998Z,27.23
2023-03-28T18:04:51.619Z,27.21
2023-03-28T18:07:22.222Z,27.18
2023-03-28T18:09:52.504Z,27.17
2023-03-28T18:12:23.343Z,27.16
2023-03-28T18:14:53.125Z,27.14
2023-03-28T18:17:24.536Z,27.13
2023-03-28T18:19:56.870Z,27.12
2023-03-28T18:22:27.880Z,27.10
2023-03-28T18:24:58.594Z,27.08
2023-03-28T18:27:30.534Z,27.08
2023-03-28T18:30:07.370Z,27.06
2023-03-28T18:32:39.909Z,27.06
2023-03-28T18:35:18.568Z,27.04
2023-03-28T18:37:53.521Z,27.03
2023-03-28T18:40:30.086Z,27.01
2023-03-28T18:43:00.244Z,26.99
2023-03-28T18:45:31.401Z,26.98
2023-03-28T18:48:01.673Z,26.97
2023-03-28T18:50:34.318Z,26.96
2023-03-28T18:53:05.524Z,26.94
2023-03-28T18:55:35.374Z,26.94
2023-03-28T18:58:06.960Z,26.93
2023-03-28T19:00:38.869Z,26.91
2023-03-28T19:03:10.242Z,26.89
2023-03-28T19:05:42.743Z,26.90
2023-03-28T19:08:14.677Z,26.87
2023-03-28T19:10:48.763Z,26.87
2023-03-28T19:13:19.346Z,26.85
2023-03-28T19:15:49.732Z,26.84
2023-03-28T19:18:20.320Z,26.83
2023-03-28T19:20:57.369Z,26.83
2023-03-28T19:23:31.033Z,26.82
2023-03-28T19:26:01.767Z,26.81
2023-03-28T19:28:32.496Z,26.79
2023-03-28T19:31:05.675Z,26.77
2023-03-28T19:33:36.190Z,26.76
2023-03-28T19:36:10.496Z,26.73
2023-03-28T19:38:42.614Z,26.69
2023-03-28T19:41:20.911Z,26.68
2023-03-28T19:43:51.902Z,26.65
2023-03-28T19:46:33.697Z,26.64
2023-03-28T19:49:08.684Z,26.61
2023-03-28T19:51:40.808Z,26.60
2023-03-28T19:54:11.362Z,26.59
2023-03-28T19:56:42.410Z,26.56
2023-03-28T19:59:13.007Z,26.55
2023-03-28T20:01:43.702Z,26.51
2023-03-28T20:04:14.813Z,26.49
2023-03-28T20:06:49.148Z,26.46
2023-03-28T20:09:19.602Z,26.43
2023-03-28T20:11:51.152Z,26.40
2023-03-28T20:14:22.423Z,26.38
2023-03-28T20:16:52.444Z,26.38
2023-03-28T20:19:23.615Z,26.36
2023-03-28T20:21:55.990Z,26.36
2023-03-28T20:24:26.297Z,26.35
2023-03-28T20:26:56.401Z,26.34
2023-03-28T20:29:27.598Z,26.34
2023-03-28T20:31:58.754Z,26.33
2023-03-28T20:34:29.653Z,26.33
2023-03-28T20:37:02.676Z,26.31
2023-03-28T20:39:34.604Z,26.30
2023-03-28T20:42:05.940Z,26.29
2023-03-28T20:44:38.633Z,26.30
2023-03-28T20:47:10.989Z,26.29
2023-03-28T20:49:46.541Z,26.30
2023-03-28T20:52:19.409Z,26.29
2023-03-28T20:54:50.655Z,26.29
2023-03-28T20:57:22.054Z,26.30
2023-03-28T20:59:55.460Z,26.29
2023-03-28T21:02:25.970Z,26.30
2023-03-28T21:04:56.654Z,26.29
2023-03-28T21:07:29.226Z,26.28
2023-03-28T21:09:59.947Z,26.26
2023-03-28T21:12:30.342Z,26.24
2023-03-28T21:15:00.821Z,26.21
2023-03-28T21:17:31.192Z,26.18
2023-03-28T21:20:04.185Z,26.16
2023-03-28T21:22:38.452Z,26.13
2023-03-28T21:25:10.930Z,26.11
2023-03-28T21:27:42.984Z,26.08
2023-03-28T21:30:14.821Z,26.05
2023-03-28T21:32:45.658Z,26.04
2023-03-28T21:35:17.114Z,26.02
2023-03-28T21:37:49.951Z,25.98
2023-03-28T21:40:20.432Z,25.95
2023-03-28T21:42:50.960Z,25.90
2023-03-28T21:45:21.534Z,25.87
2023-03-28T21:47:52.725Z,25.84
2023-03-28T21:50:24.058Z,25.81
2023-03-28T21:52:57.190Z,25.79
2023-03-28T21:55:29.232Z,25.76
2023-03-28T21:57:59.234Z,25.73
2023-03-28T22:00:30.208Z,25.69
2023-03-28T22:03:01.028Z,25.66
2023-03-28T22:05:31.697Z,25.64
2023-03-28T22:08:05.462Z,25.62
2023-03-28T22:10:36.192Z,25.60
2023-03-28T22:13:07.473Z,25.58
2023-03-28T22:15:37.916Z,25.56
2023-03-28T22:18:09.549Z,25.54
2023-03-28T22:20:44.056Z,25.52
2023-03-28T22:23:15.963Z,25.52
2023-03-28T22:25:47.065Z,25.49
2023-03-28T22:28:17.220Z,25.49
2023-03-28T22:30:47.786Z,25.47
2023-03-28T22:33:19.771Z,25.47
2023-03-28T22:35:50.505Z,25.46
2023-03-28T22:38:22.903Z,25.45
2023-03-28T22:40:53.634Z,25.45
2023-03-28T22:43:25.644Z,25.46
2023-03-28T22:45:55.955Z,25.45
2023-03-28T22:48:30.526Z,25.44
2023-03-28T22:51:02.164Z,25.43
2023-03-28T22:53:34.548Z,25.44
2023-03-28T22:56:05.964Z,25.42
2023-03-28T22:58:36.768Z,25.42
2023-03-28T23:01:08.164Z,25.41
2023-03-28T23:03:38.846Z,25.40
2023-03-28T23:06:10.144Z,25.40
2023-03-28T23:08:42.814Z,25.39
2023-03-28T23:11:13.688Z,25.38
2023-03-28T23:13:43.734Z,25.38
2023-03-28T23:16:14.831Z,25.38
2023-03-28T23:18:45.447Z,25.39
2023-03-28T23:21:16.176Z,25.40
2023-03-28T23:23:48.935Z,25.41
2023-03-28T23:26:22.508Z,25.43
2023-03-28T23:28:52.565Z,25.42
2023-03-28T23:31:23.208Z,25.42
2023-03-28T23:33:53.740Z,25.43
2023-03-28T23:36:26.519Z,25.42
2023-03-28T23:38:58.784Z,25.43
2023-03-28T23:41:29.220Z,25.43
2023-03-28T23:43:59.698Z,25.43
2023-03-28T23:46:30.105Z,25.44
2023-03-28T23:49:00.651Z,25.43
2023-03-28T23:51:31.773Z,25.42
2023-03-28T23:54:04.334Z,25.42
2023-03-28T23:56:34.878Z,25.43
2023-03-28T23:59:05.608Z,25.42
